sensor_id;sensor_type;location;lat;lon;timestamp;P1;P2;P0
73246;PMS5003;61460;41.158;-73.238;2023-03-03T00:00:02;0;0;
73246;PMS5003;61460;41.158;-73.238;2023-03-03T00:02:32;0;0;
73246;PMS5003;61460;41.158;-73.238;2023-03-03T00:05:03;0;0;
73246;PMS5003;61460;41.158;-73.238;2023-03-03T00:07:33;0;0;
73246;PMS5003;61460;41.158;-73.238;2023-03-03T00:10:04;0;0;
73246;PMS5003;61460;41.158;-73.238;2023-03-03T00:12:34;0;0;
73246;PMS5003;61460;41.158;-73.238;2023-03-03T00:17:36;0;0;
73246;PMS5003;61460;41.158;-73.238;2023-03-03T00:22:37;0;0;
73246;PMS5003;61460;41.158;-73.238;2023-03-03T00:27:38;0;0;
73246;PMS5003;61460;41.158;-73.238;2023-03-03T00:30:16;0;0;
73246;PMS5003;61460;41.158;-73.238;2023-03-03T00:32:41;0;0;
73246;PMS5003;61460;41.158;-73.238;2023-03-03T00:37:41;1;0;
73246;PMS5003;61460;41.158;-73.238;2023-03-03T00:42:43;0;0;
73246;PMS5003;61460;41.158;-73.238;2023-03-03T00:47:43;0;0;
73246;PMS5003;61460;41.158;-73.238;2023-03-03T00:50:24;0;0;
73246;PMS5003;61460;41.158;-73.238;2023-03-03T00:52:49;0;0;
73246;PMS5003;61460;41.158;-73.238;2023-03-03T00:55:15;0;0;
73246;PMS5003;61460;41.158;-73.238;2023-03-03T00:57:46;0;0;
73246;PMS5003;61460;41.158;-73.238;2023-03-03T01:00:17;0;0;
73246;PMS5003;61460;41.158;-73.238;2023-03-03T01:02:47;0;0;
73246;PMS5003;61460;41.158;-73.238;2023-03-03T01:05:18;0;0;
73246;PMS5003;61460;41.158;-73.238;2023-03-03T01:07:48;0;0;
73246;PMS5003;61460;41.158;-73.238;2023-03-03T01:10:19;0;0;
73246;PMS5003;61460;41.158;-73.238;2023-03-03T01:12:50;0;0;
73246;PMS5003;61460;41.158;-73.238;2023-03-03T01:15:20;0;0;
73246;PMS5003;61460;41.158;-73.238;2023-03-03T01:17:51;0;0;
73246;PMS5003;61460;41.158;-73.238;2023-03-03T01:20:21;0;0;
73246;PMS5003;61460;41.158;-73.238;2023-03-03T01:22:52;1;0;
73246;PMS5003;61460;41.158;-73.238;2023-03-03T01:25:23;0;0;
73246;PMS5003;61460;41.158;-73.238;2023-03-03T01:27:53;0;0;
73246;PMS5003;61460;41.158;-73.238;2023-03-03T01:30:25;1;1;
73246;PMS5003;61460;41.158;-73.238;2023-03-03T01:32:55;1;1;
73246;PMS5003;61460;41.158;-73.238;2023-03-03T01:35:25;0;0;
73246;PMS5003;61460;41.158;-73.238;2023-03-03T01:37:57;0;0;
73246;PMS5003;61460;41.158;-73.238;2023-03-03T01:40:28;0;0;
73246;PMS5003;61460;41.158;-73.238;2023-03-03T01:42:58;1;0;
73246;PMS5003;61460;41.158;-73.238;2023-03-03T01:45:28;0;0;
73246;PMS5003;61460;41.158;-73.238;2023-03-03T01:47:59;1;0;
73246;PMS5003;61460;41.158;-73.238;2023-03-03T01:50:31;0;0;
73246;PMS5003;61460;41.158;-73.238;2023-03-03T01:53:01;0;0;
73246;PMS5003;61460;41.158;-73.238;2023-03-03T01:55:33;0;0;
73246;PMS5003;61460;41.158;-73.238;2023-03-03T01:58:02;0;0;
73246;PMS5003;61460;41.158;-73.238;2023-03-03T02:00:32;1;0;
73246;PMS5003;61460;41.158;-73.238;2023-03-03T02:03:02;0;0;
73246;PMS5003;61460;41.158;-73.238;2023-03-03T02:05:33;0;0;
73246;PMS5003;61460;41.158;-73.238;2023-03-03T02:08:04;0;0;
73246;PMS5003;61460;41.158;-73.238;2023-03-03T02:10:34;0;0;
73246;PMS5003;61460;41.158;-73.238;2023-03-03T02:13:05;0;0;
73246;PMS5003;61460;41.158;-73.238;2023-03-03T02:15:35;0;0;
73246;PMS5003;61460;41.158;-73.238;2023-03-03T02:18:07;0;0;
73246;PMS5003;61460;41.158;-73.238;2023-03-03T02:20:40;0;0;
73246;PMS5003;61460;41.158;-73.238;2023-03-03T02:23:08;0;0;
73246;PMS5003;61460;41.158;-73.238;2023-03-03T02:25:40;0;0;
73246;PMS5003;61460;41.158;-73.238;2023-03-03T02:28:09;0;0;
73246;PMS5003;61460;41.158;-73.238;2023-03-03T02:30:39;0;0;
73246;PMS5003;61460;41.158;-73.238;2023-03-03T02:33:10;1;0;
73246;PMS5003;61460;41.158;-73.238;2023-03-03T02:35:41;0;0;
73246;PMS5003;61460;41.158;-73.238;2023-03-03T02:38:14;0;0;
73246;PMS5003;61460;41.158;-73.238;2023-03-03T02:40:43;0;0;
73246;PMS5003;61460;41.158;-73.238;2023-03-03T02:43:12;0;0;
73246;PMS5003;61460;41.158;-73.238;2023-03-03T02:45:44;0;0;
73246;PMS5003;61460;41.158;-73.238;2023-03-03T02:48:14;0;0;
73246;PMS5003;61460;41.158;-73.238;2023-03-03T02:50:44;0;0;
73246;PMS5003;61460;41.158;-73.238;2023-03-03T02:53:15;0;0;
73246;PMS5003;61460;41.158;-73.238;2023-03-03T02:55:45;0;0;
73246;PMS5003;61460;41.158;-73.238;2023-03-03T02:58:17;0;0;
73246;PMS5003;61460;41.158;-73.238;2023-03-03T03:00:47;0;0;
73246;PMS5003;61460;41.158;-73.238;2023-03-03T03:03:17;1;0;
73246;PMS5003;61460;41.158;-73.238;2023-03-03T03:05:48;0;0;
73246;PMS5003;61460;41.158;-73.238;2023-03-03T03:08:19;0;0;
73246;PMS5003;61460;41.158;-73.238;2023-03-03T03:10:49;0;0;
73246;PMS5003;61460;41.158;-73.238;2023-03-03T03:13:20;0;0;
73246;PMS5003;61460;41.158;-73.238;2023-03-03T03:15:51;0;0;
73246;PMS5003;61460;41.158;-73.238;2023-03-03T03:18:21;0;0;
73246;PMS5003;61460;41.158;-73.238;2023-03-03T03:20:53;0;0;
73246;PMS5003;61460;41.158;-73.238;2023-03-03T03:23:22;0;0;
73246;PMS5003;61460;41.158;-73.238;2023-03-03T03:25:54;0;0;
73246;PMS5003;61460;41.158;-73.238;2023-03-03T03:28:27;0;0;
73246;PMS5003;61460;41.158;-73.238;2023-03-03T03:30:54;0;0;
73246;PMS5003;61460;41.158;-73.238;2023-03-03T03:33:25;0;0;
73246;PMS5003;61460;41.158;-73.238;2023-03-03T03:35:56;0;0;
73246;PMS5003;61460;41.158;-73.238;2023-03-03T03:38:26;0;0;
73246;PMS5003;61460;41.158;-73.238;2023-03-03T03:40:58;0;0;
73246;PMS5003;61460;41.158;-73.238;2023-03-03T03:43:27;0;0;
73246;PMS5003;61460;41.158;-73.238;2023-03-03T03:45:58;0;0;
73246;PMS5003;61460;41.158;-73.238;2023-03-03T03:48:29;0;0;
73246;PMS5003;61460;41.158;-73.238;2023-03-03T03:50:59;0;0;
73246;PMS5003;61460;41.158;-73.238;2023-03-03T03:53:30;0;0;
73246;PMS5003;61460;41.158;-73.238;2023-03-03T03:56:00;1;0;
73246;PMS5003;61460;41.158;-73.238;2023-03-03T03:58:31;0;0;
73246;PMS5003;61460;41.158;-73.238;2023-03-03T04:01:03;0;0;
73246;PMS5003;61460;41.158;-73.238;2023-03-03T04:03:32;0;0;
73246;PMS5003;61460;41.158;-73.238;2023-03-03T04:06:03;0;0;
73246;PMS5003;61460;41.158;-73.238;2023-03-03T04:08:34;0;0;
73246;PMS5003;61460;41.158;-73.238;2023-03-03T04:11:04;0;0;
73246;PMS5003;61460;41.158;-73.238;2023-03-03T04:13:35;0;0;
73246;PMS5003;61460;41.158;-73.238;2023-03-03T04:16:06;0;0;
73246;PMS5003;61460;41.158;-73.238;2023-03-03T04:18:36;0;0;
73246;PMS5003;61460;41.158;-73.238;2023-03-03T04:21:09;0;0;
73246;PMS5003;61460;41.158;-73.238;2023-03-03T04:23:37;1;0;
73246;PMS5003;61460;41.158;-73.238;2023-03-03T04:26:08;0;0;
73246;PMS5003;61460;41.158;-73.238;2023-03-03T04:28:39;0;0;
73246;PMS5003;61460;41.158;-73.238;2023-03-03T04:31:09;2;1;
73246;PMS5003;61460;41.158;-73.238;2023-03-03T04:33:40;1;0;
73246;PMS5003;61460;41.158;-73.238;2023-03-03T04:36:11;1;1;
73246;PMS5003;61460;41.158;-73.238;2023-03-03T04:38:41;2;2;
73246;PMS5003;61460;41.158;-73.238;2023-03-03T04:41:12;3;3;
73246;PMS5003;61460;41.158;-73.238;2023-03-03T04:43:44;10;10;
73246;PMS5003;61460;41.158;-73.238;2023-03-03T04:46:13;9;9;
73246;PMS5003;61460;41.158;-73.238;2023-03-03T04:48:44;9;8;
73246;PMS5003;61460;41.158;-73.238;2023-03-03T04:51:14;9;8;
73246;PMS5003;61460;41.158;-73.238;2023-03-03T04:53:45;6;5;
73246;PMS5003;61460;41.158;-73.238;2023-03-03T04:56:16;12;12;
73246;PMS5003;61460;41.158;-73.238;2023-03-03T04:58:46;10;9;
73246;PMS5003;61460;41.158;-73.238;2023-03-03T05:01:17;9;9;
73246;PMS5003;61460;41.158;-73.238;2023-03-03T05:03:47;11;10;
73246;PMS5003;61460;41.158;-73.238;2023-03-03T05:06:18;11;11;
73246;PMS5003;61460;41.158;-73.238;2023-03-03T05:08:49;10;10;
73246;PMS5003;61460;41.158;-73.238;2023-03-03T05:11:19;11;11;
73246;PMS5003;61460;41.158;-73.238;2023-03-03T05:13:50;11;11;
73246;PMS5003;61460;41.158;-73.238;2023-03-03T05:16:21;12;10;
73246;PMS5003;61460;41.158;-73.238;2023-03-03T05:18:51;16;14;
73246;PMS5003;61460;41.158;-73.238;2023-03-03T05:21:22;16;15;
73246;PMS5003;61460;41.158;-73.238;2023-03-03T05:23:52;37;35;
73246;PMS5003;61460;41.158;-73.238;2023-03-03T05:26:22;33;31;
73246;PMS5003;61460;41.158;-73.238;2023-03-03T05:28:53;27;27;
73246;PMS5003;61460;41.158;-73.238;2023-03-03T05:31:23;24;23;
73246;PMS5003;61460;41.158;-73.238;2023-03-03T05:33:53;26;25;
73246;PMS5003;61460;41.158;-73.238;2023-03-03T05:36:24;38;29;
73246;PMS5003;61460;41.158;-73.238;2023-03-03T05:38:54;32;26;
73246;PMS5003;61460;41.158;-73.238;2023-03-03T05:41:24;26;24;
73246;PMS5003;61460;41.158;-73.238;2023-03-03T05:43:55;35;28;
73246;PMS5003;61460;41.158;-73.238;2023-03-03T05:46:26;29;25;
73246;PMS5003;61460;41.158;-73.238;2023-03-03T05:48:56;28;24;
73246;PMS5003;61460;41.158;-73.238;2023-03-03T05:51:26;30;26;
73246;PMS5003;61460;41.158;-73.238;2023-03-03T05:53:57;28;28;
73246;PMS5003;61460;41.158;-73.238;2023-03-03T05:56:26;35;26;
73246;PMS5003;61460;41.158;-73.238;2023-03-03T05:58:57;27;27;
73246;PMS5003;61460;41.158;-73.238;2023-03-03T06:01:28;26;25;
73246;PMS5003;61460;41.158;-73.238;2023-03-03T06:03:58;26;26;
73246;PMS5003;61460;41.158;-73.238;2023-03-03T06:06:28;40;30;
73246;PMS5003;61460;41.158;-73.238;2023-03-03T06:08:59;39;38;
73246;PMS5003;61460;41.158;-73.238;2023-03-03T06:11:29;49;42;
73246;PMS5003;61460;41.158;-73.238;2023-03-03T06:14:00;36;34;
73246;PMS5003;61460;41.158;-73.238;2023-03-03T06:16:30;37;35;
73246;PMS5003;61460;41.158;-73.238;2023-03-03T06:19:00;36;31;
73246;PMS5003;61460;41.158;-73.238;2023-03-03T06:21:31;34;31;
73246;PMS5003;61460;41.158;-73.238;2023-03-03T06:24:01;43;37;
73246;PMS5003;61460;41.158;-73.238;2023-03-03T06:26:32;51;38;
73246;PMS5003;61460;41.158;-73.238;2023-03-03T06:29:01;35;34;
73246;PMS5003;61460;41.158;-73.238;2023-03-03T06:31:32;32;32;
73246;PMS5003;61460;41.158;-73.238;2023-03-03T06:34:02;34;32;
73246;PMS5003;61460;41.158;-73.238;2023-03-03T06:36:33;31;31;
73246;PMS5003;61460;41.158;-73.238;2023-03-03T06:39:03;37;36;
73246;PMS5003;61460;41.158;-73.238;2023-03-03T06:41:34;43;33;
73246;PMS5003;61460;41.158;-73.238;2023-03-03T06:44:04;48;41;
73246;PMS5003;61460;41.158;-73.238;2023-03-03T06:46:35;58;49;
73246;PMS5003;61460;41.158;-73.238;2023-03-03T06:49:05;57;48;
73246;PMS5003;61460;41.158;-73.238;2023-03-03T06:51:36;51;43;
73246;PMS5003;61460;41.158;-73.238;2023-03-03T06:54:09;49;37;
73246;PMS5003;61460;41.158;-73.238;2023-03-03T06:56:36;41;37;
73246;PMS5003;61460;41.158;-73.238;2023-03-03T06:59:09;54;43;
73246;PMS5003;61460;41.158;-73.238;2023-03-03T07:01:38;42;36;
73246;PMS5003;61460;41.158;-73.238;2023-03-03T07:04:09;37;36;
73246;PMS5003;61460;41.158;-73.238;2023-03-03T07:06:37;41;39;
73246;PMS5003;61460;41.158;-73.238;2023-03-03T07:09:10;44;39;
73246;PMS5003;61460;41.158;-73.238;2023-03-03T07:11:38;41;39;
73246;PMS5003;61460;41.158;-73.238;2023-03-03T07:14:09;43;39;
73246;PMS5003;61460;41.158;-73.238;2023-03-03T07:16:40;48;44;
73246;PMS5003;61460;41.158;-73.238;2023-03-03T07:19:13;40;39;
73246;PMS5003;61460;41.158;-73.238;2023-03-03T07:21:40;44;43;
73246;PMS5003;61460;41.158;-73.238;2023-03-03T07:24:14;54;43;
73246;PMS5003;61460;41.158;-73.238;2023-03-03T07:26:40;49;42;
73246;PMS5003;61460;41.158;-73.238;2023-03-03T07:29:15;47;36;
73246;PMS5003;61460;41.158;-73.238;2023-03-03T07:31:41;50;39;
73246;PMS5003;61460;41.158;-73.238;2023-03-03T07:34:14;46;37;
73246;PMS5003;61460;41.158;-73.238;2023-03-03T07:36:43;60;51;
73246;PMS5003;61460;41.158;-73.238;2023-03-03T07:39:20;54;46;
73246;PMS5003;61460;41.158;-73.238;2023-03-03T07:41:43;46;42;
73246;PMS5003;61460;41.158;-73.238;2023-03-03T07:44:16;56;42;
73246;PMS5003;61460;41.158;-73.238;2023-03-03T07:46:44;52;39;
73246;PMS5003;61460;41.158;-73.238;2023-03-03T07:49:19;47;45;
73246;PMS5003;61460;41.158;-73.238;2023-03-03T07:51:44;49;42;
73246;PMS5003;61460;41.158;-73.238;2023-03-03T07:54:19;39;37;
73246;PMS5003;61460;41.158;-73.238;2023-03-03T07:56:45;49;40;
73246;PMS5003;61460;41.158;-73.238;2023-03-03T07:59:19;43;42;
73246;PMS5003;61460;41.158;-73.238;2023-03-03T08:01:46;51;40;
73246;PMS5003;61460;41.158;-73.238;2023-03-03T08:04:19;36;36;
73246;PMS5003;61460;41.158;-73.238;2023-03-03T08:06:49;34;33;
73246;PMS5003;61460;41.158;-73.238;2023-03-03T08:09:24;41;38;
73246;PMS5003;61460;41.158;-73.238;2023-03-03T08:11:50;41;34;
73246;PMS5003;61460;41.158;-73.238;2023-03-03T08:14:20;38;35;
73246;PMS5003;61460;41.158;-73.238;2023-03-03T08:16:50;46;37;
73246;PMS5003;61460;41.158;-73.238;2023-03-03T08:19:20;39;36;
73246;PMS5003;61460;41.158;-73.238;2023-03-03T08:21:51;37;33;
73246;PMS5003;61460;41.158;-73.238;2023-03-03T08:24:22;47;38;
73246;PMS5003;61460;41.158;-73.238;2023-03-03T08:26:51;38;36;
73246;PMS5003;61460;41.158;-73.238;2023-03-03T08:29:22;36;30;
73246;PMS5003;61460;41.158;-73.238;2023-03-03T08:31:52;44;42;
73246;PMS5003;61460;41.158;-73.238;2023-03-03T08:34:22;55;53;
73246;PMS5003;61460;41.158;-73.238;2023-03-03T08:36:53;46;44;
73246;PMS5003;61460;41.158;-73.238;2023-03-03T08:39:24;50;46;
73246;PMS5003;61460;41.158;-73.238;2023-03-03T08:41:54;40;37;
73246;PMS5003;61460;41.158;-73.238;2023-03-03T08:44:25;40;37;
73246;PMS5003;61460;41.158;-73.238;2023-03-03T08:46:55;47;39;
73246;PMS5003;61460;41.158;-73.238;2023-03-03T08:49:26;46;38;
73246;PMS5003;61460;41.158;-73.238;2023-03-03T08:51:56;48;41;
73246;PMS5003;61460;41.158;-73.238;2023-03-03T08:54:27;45;41;
73246;PMS5003;61460;41.158;-73.238;2023-03-03T08:56:57;44;37;
73246;PMS5003;61460;41.158;-73.238;2023-03-03T08:59:28;41;39;
73246;PMS5003;61460;41.158;-73.238;2023-03-03T09:01:58;50;42;
73246;PMS5003;61460;41.158;-73.238;2023-03-03T09:04:28;43;36;
73246;PMS5003;61460;41.158;-73.238;2023-03-03T09:06:59;40;38;
73246;PMS5003;61460;41.158;-73.238;2023-03-03T09:09:29;38;37;
73246;PMS5003;61460;41.158;-73.238;2023-03-03T09:12:01;42;41;
73246;PMS5003;61460;41.158;-73.238;2023-03-03T09:14:30;47;42;
73246;PMS5003;61460;41.158;-73.238;2023-03-03T09:17:00;41;36;
73246;PMS5003;61460;41.158;-73.238;2023-03-03T09:19:31;49;41;
73246;PMS5003;61460;41.158;-73.238;2023-03-03T09:22:02;45;38;
73246;PMS5003;61460;41.158;-73.238;2023-03-03T09:24:31;36;35;
73246;PMS5003;61460;41.158;-73.238;2023-03-03T09:27:06;40;37;
73246;PMS5003;61460;41.158;-73.238;2023-03-03T09:29:35;45;37;
73246;PMS5003;61460;41.158;-73.238;2023-03-03T09:32:07;54;48;
73246;PMS5003;61460;41.158;-73.238;2023-03-03T09:34:37;60;46;
73246;PMS5003;61460;41.158;-73.238;2023-03-03T09:39:34;42;41;
73246;PMS5003;61460;41.158;-73.238;2023-03-03T09:44:41;43;37;
73246;PMS5003;61460;41.158;-73.238;2023-03-03T09:47:09;45;39;
73246;PMS5003;61460;41.158;-73.238;2023-03-03T09:49:39;47;41;
73246;PMS5003;61460;41.158;-73.238;2023-03-03T09:52:15;50;41;
73246;PMS5003;61460;41.158;-73.238;2023-03-03T09:54:42;39;36;
73246;PMS5003;61460;41.158;-73.238;2023-03-03T09:57:10;46;39;
73246;PMS5003;61460;41.158;-73.238;2023-03-03T09:59:42;58;49;
73246;PMS5003;61460;41.158;-73.238;2023-03-03T10:02:15;56;44;
73246;PMS5003;61460;41.158;-73.238;2023-03-03T10:04:41;45;44;
73246;PMS5003;61460;41.158;-73.238;2023-03-03T10:07:15;42;40;
73246;PMS5003;61460;41.158;-73.238;2023-03-03T10:09:45;53;43;
73246;PMS5003;61460;41.158;-73.238;2023-03-03T10:12:12;52;45;
73246;PMS5003;61460;41.158;-73.238;2023-03-03T10:14:48;56;43;
73246;PMS5003;61460;41.158;-73.238;2023-03-03T10:17:17;49;45;
73246;PMS5003;61460;41.158;-73.238;2023-03-03T10:22:16;49;38;
73246;PMS5003;61460;41.158;-73.238;2023-03-03T10:24:46;46;44;
73246;PMS5003;61460;41.158;-73.238;2023-03-03T10:27:20;48;41;
73246;PMS5003;61460;41.158;-73.238;2023-03-03T10:29:48;55;45;
73246;PMS5003;61460;41.158;-73.238;2023-03-03T10:32:24;45;41;
73246;PMS5003;61460;41.158;-73.238;2023-03-03T10:34:49;50;42;
73246;PMS5003;61460;41.158;-73.238;2023-03-03T10:37:18;41;38;
73246;PMS5003;61460;41.158;-73.238;2023-03-03T10:39:51;46;37;
73246;PMS5003;61460;41.158;-73.238;2023-03-03T10:42:22;68;57;
73246;PMS5003;61460;41.158;-73.238;2023-03-03T10:44:55;59;51;
73246;PMS5003;61460;41.158;-73.238;2023-03-03T10:47:24;53;43;
73246;PMS5003;61460;41.158;-73.238;2023-03-03T10:49:52;56;42;
73246;PMS5003;61460;41.158;-73.238;2023-03-03T10:52:23;49;41;
73246;PMS5003;61460;41.158;-73.238;2023-03-03T10:54:56;53;46;
73246;PMS5003;61460;41.158;-73.238;2023-03-03T10:57:23;51;45;
73246;PMS5003;61460;41.158;-73.238;2023-03-03T10:59:55;57;44;
73246;PMS5003;61460;41.158;-73.238;2023-03-03T11:02:23;40;38;
73246;PMS5003;61460;41.158;-73.238;2023-03-03T11:04:57;53;44;
73246;PMS5003;61460;41.158;-73.238;2023-03-03T11:07:24;48;41;
73246;PMS5003;61460;41.158;-73.238;2023-03-03T11:09:57;50;43;
73246;PMS5003;61460;41.158;-73.238;2023-03-03T11:12:27;51;44;
73246;PMS5003;61460;41.158;-73.238;2023-03-03T11:14:58;54;44;
73246;PMS5003;61460;41.158;-73.238;2023-03-03T11:17:25;52;42;
73246;PMS5003;61460;41.158;-73.238;2023-03-03T11:19:58;46;45;
73246;PMS5003;61460;41.158;-73.238;2023-03-03T11:22:29;42;40;
73246;PMS5003;61460;41.158;-73.238;2023-03-03T11:24:58;42;40;
73246;PMS5003;61460;41.158;-73.238;2023-03-03T11:27:29;53;43;
73246;PMS5003;61460;41.158;-73.238;2023-03-03T11:30:00;43;39;
73246;PMS5003;61460;41.158;-73.238;2023-03-03T11:32:30;40;39;
73246;PMS5003;61460;41.158;-73.238;2023-03-03T11:35:00;42;40;
73246;PMS5003;61460;41.158;-73.238;2023-03-03T11:37:27;62;48;
73246;PMS5003;61460;41.158;-73.238;2023-03-03T11:39:58;47;39;
73246;PMS5003;61460;41.158;-73.238;2023-03-03T11:42:30;45;38;
73246;PMS5003;61460;41.158;-73.238;2023-03-03T11:44:59;33;33;
73246;PMS5003;61460;41.158;-73.238;2023-03-03T11:47:30;35;34;
73246;PMS5003;61460;41.158;-73.238;2023-03-03T11:49:59;37;36;
73246;PMS5003;61460;41.158;-73.238;2023-03-03T11:52:31;36;36;
73246;PMS5003;61460;41.158;-73.238;2023-03-03T11:55:01;49;36;
73246;PMS5003;61460;41.158;-73.238;2023-03-03T11:57:31;38;37;
73246;PMS5003;61460;41.158;-73.238;2023-03-03T12:00:04;51;40;
73246;PMS5003;61460;41.158;-73.238;2023-03-03T12:02:34;46;37;
73246;PMS5003;61460;41.158;-73.238;2023-03-03T12:05:04;40;36;
73246;PMS5003;61460;41.158;-73.238;2023-03-03T12:07:32;37;30;
73246;PMS5003;61460;41.158;-73.238;2023-03-03T12:10:04;35;34;
73246;PMS5003;61460;41.158;-73.238;2023-03-03T12:12:32;37;34;
73246;PMS5003;61460;41.158;-73.238;2023-03-03T12:15:03;33;31;
73246;PMS5003;61460;41.158;-73.238;2023-03-03T12:17:36;38;32;
73246;PMS5003;61460;41.158;-73.238;2023-03-03T12:20:04;42;35;
73246;PMS5003;61460;41.158;-73.238;2023-03-03T12:22:34;31;31;
73246;PMS5003;61460;41.158;-73.238;2023-03-03T12:25:08;40;30;
73246;PMS5003;61460;41.158;-73.238;2023-03-03T12:27:37;27;25;
73246;PMS5003;61460;41.158;-73.238;2023-03-03T12:30:08;32;25;
73246;PMS5003;61460;41.158;-73.238;2023-03-03T12:32:42;26;26;
73246;PMS5003;61460;41.158;-73.238;2023-03-03T12:35:06;27;24;
73246;PMS5003;61460;41.158;-73.238;2023-03-03T12:37:42;27;25;
73246;PMS5003;61460;41.158;-73.238;2023-03-03T12:40:07;29;28;
73246;PMS5003;61460;41.158;-73.238;2023-03-03T12:42:40;29;27;
73246;PMS5003;61460;41.158;-73.238;2023-03-03T12:45:13;33;25;
73246;PMS5003;61460;41.158;-73.238;2023-03-03T12:47:40;28;22;
73246;PMS5003;61460;41.158;-73.238;2023-03-03T12:50:14;30;21;
73246;PMS5003;61460;41.158;-73.238;2023-03-03T12:52:44;24;21;
73246;PMS5003;61460;41.158;-73.238;2023-03-03T12:55:13;28;23;
73246;PMS5003;61460;41.158;-73.238;2023-03-03T12:57:41;20;19;
73246;PMS5003;61460;41.158;-73.238;2023-03-03T13:02:43;23;21;
73246;PMS5003;61460;41.158;-73.238;2023-03-03T13:07:42;19;17;
73246;PMS5003;61460;41.158;-73.238;2023-03-03T13:10:13;19;16;
73246;PMS5003;61460;41.158;-73.238;2023-03-03T13:12:43;19;16;
73246;PMS5003;61460;41.158;-73.238;2023-03-03T13:15:14;22;17;
73246;PMS5003;61460;41.158;-73.238;2023-03-03T13:17:46;18;17;
73246;PMS5003;61460;41.158;-73.238;2023-03-03T13:20:16;14;13;
73246;PMS5003;61460;41.158;-73.238;2023-03-03T13:22:45;12;12;
73246;PMS5003;61460;41.158;-73.238;2023-03-03T13:25:30;15;14;
73246;PMS5003;61460;41.158;-73.238;2023-03-03T13:27:46;24;14;
73246;PMS5003;61460;41.158;-73.238;2023-03-03T13:30:18;14;13;
73246;PMS5003;61460;41.158;-73.238;2023-03-03T13:32:48;17;15;
73246;PMS5003;61460;41.158;-73.238;2023-03-03T13:35:19;12;12;
73246;PMS5003;61460;41.158;-73.238;2023-03-03T13:37:48;14;13;
73246;PMS5003;61460;41.158;-73.238;2023-03-03T13:40:18;11;10;
73246;PMS5003;61460;41.158;-73.238;2023-03-03T13:42:49;12;11;
73246;PMS5003;61460;41.158;-73.238;2023-03-03T13:45:21;13;11;
73246;PMS5003;61460;41.158;-73.238;2023-03-03T13:47:52;12;11;
73246;PMS5003;61460;41.158;-73.238;2023-03-03T13:50:21;7;7;
73246;PMS5003;61460;41.158;-73.238;2023-03-03T13:52:54;8;8;
73246;PMS5003;61460;41.158;-73.238;2023-03-03T13:55:23;10;10;
73246;PMS5003;61460;41.158;-73.238;2023-03-03T13:57:56;9;9;
73246;PMS5003;61460;41.158;-73.238;2023-03-03T14:00:26;9;9;
73246;PMS5003;61460;41.158;-73.238;2023-03-03T14:02:58;8;8;
73246;PMS5003;61460;41.158;-73.238;2023-03-03T14:05:25;10;10;
73246;PMS5003;61460;41.158;-73.238;2023-03-03T14:07:56;11;11;
73246;PMS5003;61460;41.158;-73.238;2023-03-03T14:10:27;9;8;
73246;PMS5003;61460;41.158;-73.238;2023-03-03T14:12:59;5;4;
73246;PMS5003;61460;41.158;-73.238;2023-03-03T14:15:27;7;7;
73246;PMS5003;61460;41.158;-73.238;2023-03-03T14:18:02;5;5;
73246;PMS5003;61460;41.158;-73.238;2023-03-03T14:20:29;10;8;
73246;PMS5003;61460;41.158;-73.238;2023-03-03T14:23:00;7;7;
73246;PMS5003;61460;41.158;-73.238;2023-03-03T14:28:01;7;7;
73246;PMS5003;61460;41.158;-73.238;2023-03-03T14:30:32;5;5;
73246;PMS5003;61460;41.158;-73.238;2023-03-03T14:33:04;6;4;
73246;PMS5003;61460;41.158;-73.238;2023-03-03T14:35:33;6;6;
73246;PMS5003;61460;41.158;-73.238;2023-03-03T14:38:05;6;6;
73246;PMS5003;61460;41.158;-73.238;2023-03-03T14:40:34;6;6;
73246;PMS5003;61460;41.158;-73.238;2023-03-03T14:43:05;4;4;
73246;PMS5003;61460;41.158;-73.238;2023-03-03T14:45:36;4;4;
73246;PMS5003;61460;41.158;-73.238;2023-03-03T14:48:09;4;4;
73246;PMS5003;61460;41.158;-73.238;2023-03-03T14:50:37;4;4;
73246;PMS5003;61460;41.158;-73.238;2023-03-03T14:53:11;4;4;
73246;PMS5003;61460;41.158;-73.238;2023-03-03T14:55:38;4;4;
73246;PMS5003;61460;41.158;-73.238;2023-03-03T15:00:39;4;4;
73246;PMS5003;61460;41.158;-73.238;2023-03-03T15:08:12;3;3;
73246;PMS5003;61460;41.158;-73.238;2023-03-03T15:10:42;4;3;
73246;PMS5003;61460;41.158;-73.238;2023-03-03T15:15:48;3;3;
73246;PMS5003;61460;41.158;-73.238;2023-03-03T15:18:13;2;2;
73246;PMS5003;61460;41.158;-73.238;2023-03-03T15:20:44;4;3;
73246;PMS5003;61460;41.158;-73.238;2023-03-03T15:25:46;4;3;
73246;PMS5003;61460;41.158;-73.238;2023-03-03T15:28:19;2;2;
73246;PMS5003;61460;41.158;-73.238;2023-03-03T15:30:48;2;2;
73246;PMS5003;61460;41.158;-73.238;2023-03-03T15:33:20;1;1;
73246;PMS5003;61460;41.158;-73.238;2023-03-03T15:35:49;1;0;
73246;PMS5003;61460;41.158;-73.238;2023-03-03T15:38:23;2;1;
73246;PMS5003;61460;41.158;-73.238;2023-03-03T15:40:50;1;1;
73246;PMS5003;61460;41.158;-73.238;2023-03-03T15:43:21;0;0;
73246;PMS5003;61460;41.158;-73.238;2023-03-03T15:45:52;1;1;
73246;PMS5003;61460;41.158;-73.238;2023-03-03T15:48:27;1;1;
73246;PMS5003;61460;41.158;-73.238;2023-03-03T15:50:54;2;2;
73246;PMS5003;61460;41.158;-73.238;2023-03-03T15:53:29;1;1;
73246;PMS5003;61460;41.158;-73.238;2023-03-03T15:55:58;2;2;
73246;PMS5003;61460;41.158;-73.238;2023-03-03T16:00:56;2;2;
73246;PMS5003;61460;41.158;-73.238;2023-03-03T16:03:26;2;2;
73246;PMS5003;61460;41.158;-73.238;2023-03-03T16:05:56;1;1;
73246;PMS5003;61460;41.158;-73.238;2023-03-03T16:08:28;2;2;
73246;PMS5003;61460;41.158;-73.238;2023-03-03T16:11:02;1;1;
73246;PMS5003;61460;41.158;-73.238;2023-03-03T16:13:33;1;1;
73246;PMS5003;61460;41.158;-73.238;2023-03-03T16:16:02;1;1;
73246;PMS5003;61460;41.158;-73.238;2023-03-03T16:18:33;0;0;
73246;PMS5003;61460;41.158;-73.238;2023-03-03T16:21:04;1;1;
73246;PMS5003;61460;41.158;-73.238;2023-03-03T16:23:30;2;2;
73246;PMS5003;61460;41.158;-73.238;2023-03-03T16:26:05;1;1;
73246;PMS5003;61460;41.158;-73.238;2023-03-03T16:28:36;1;1;
73246;PMS5003;61460;41.158;-73.238;2023-03-03T16:31:04;1;1;
73246;PMS5003;61460;41.158;-73.238;2023-03-03T16:33:33;1;1;
73246;PMS5003;61460;41.158;-73.238;2023-03-03T16:36:05;1;1;
73246;PMS5003;61460;41.158;-73.238;2023-03-03T16:38:35;1;1;
73246;PMS5003;61460;41.158;-73.238;2023-03-03T16:41:06;1;1;
73246;PMS5003;61460;41.158;-73.238;2023-03-03T16:43:37;1;1;
73246;PMS5003;61460;41.158;-73.238;2023-03-03T16:46:10;2;1;
73246;PMS5003;61460;41.158;-73.238;2023-03-03T16:48:39;0;0;
73246;PMS5003;61460;41.158;-73.238;2023-03-03T16:51:12;1;1;
73246;PMS5003;61460;41.158;-73.238;2023-03-03T16:53:42;1;0;
73246;PMS5003;61460;41.158;-73.238;2023-03-03T16:56:09;1;1;
73246;PMS5003;61460;41.158;-73.238;2023-03-03T16:58:42;1;1;
73246;PMS5003;61460;41.158;-73.238;2023-03-03T17:01:11;1;1;
73246;PMS5003;61460;41.158;-73.238;2023-03-03T17:03:45;2;2;
73246;PMS5003;61460;41.158;-73.238;2023-03-03T17:06:12;0;0;